sensor_id;sensor_type;location;lat;lon;timestamp;P1;durP1;ratioP1;P2;durP2;ratioP2
72201;SDS011;60105;54.956;73.412;2022-08-21T00:00:26;20.65;;;11.27;;
72201;SDS011;60105;54.956;73.412;2022-08-21T00:02:55;20.88;;;9.55;;
72201;SDS011;60105;54.956;73.412;2022-08-21T00:05:23;17.20;;;9.65;;
72201;SDS011;60105;54.956;73.412;2022-08-21T00:07:50;19.30;;;9.50;;
72201;SDS011;60105;54.956;73.412;2022-08-21T00:10:21;17.27;;;9.60;;
72201;SDS011;60105;54.956;73.412;2022-08-21T00:12:48;16.80;;;9.00;;
72201;SDS011;60105;54.956;73.412;2022-08-21T00:15:20;17.58;;;8.10;;
72201;SDS011;60105;54.956;73.412;2022-08-21T00:17:51;20.23;;;9.10;;
72201;SDS011;60105;54.956;73.412;2022-08-21T00:20:19;20.50;;;9.68;;
72201;SDS011;60105;54.956;73.412;2022-08-21T00:22:45;18.93;;;8.40;;
72201;SDS011;60105;54.956;73.412;2022-08-21T00:25:13;17.20;;;7.93;;
72201;SDS011;60105;54.956;73.412;2022-08-21T00:27:40;19.10;;;8.98;;
72201;SDS011;60105;54.956;73.412;2022-08-21T00:30:09;15.82;;;9.38;;
72201;SDS011;60105;54.956;73.412;2022-08-21T00:32:37;20.23;;;9.10;;
72201;SDS011;60105;54.956;73.412;2022-08-21T00:35:06;14.83;;;7.50;;
72201;SDS011;60105;54.956;73.412;2022-08-21T00:37:33;18.23;;;9.98;;
72201;SDS011;60105;54.956;73.412;2022-08-21T00:39:59;13.30;;;7.72;;
72201;SDS011;60105;54.956;73.412;2022-08-21T00:42:28;13.75;;;7.65;;
72201;SDS011;60105;54.956;73.412;2022-08-21T00:44:55;16.15;;;8.45;;
72201;SDS011;60105;54.956;73.412;2022-08-21T00:47:22;17.57;;;8.80;;
72201;SDS011;60105;54.956;73.412;2022-08-21T00:49:48;14.77;;;8.32;;
72201;SDS011;60105;54.956;73.412;2022-08-21T00:52:15;15.90;;;8.63;;
72201;SDS011;60105;54.956;73.412;2022-08-21T00:54:46;16.20;;;8.65;;
72201;SDS011;60105;54.956;73.412;2022-08-21T00:57:19;16.45;;;8.90;;
72201;SDS011;60105;54.956;73.412;2022-08-21T00:59:48;16.20;;;9.07;;
72201;SDS011;60105;54.956;73.412;2022-08-21T01:02:17;16.55;;;8.38;;
72201;SDS011;60105;54.956;73.412;2022-08-21T01:04:44;18.70;;;9.38;;
72201;SDS011;60105;54.956;73.412;2022-08-21T01:07:10;14.38;;;8.40;;
72201;SDS011;60105;54.956;73.412;2022-08-21T01:09:36;16.15;;;8.15;;
72201;SDS011;60105;54.956;73.412;2022-08-21T01:12:03;14.57;;;7.67;;
72201;SDS011;60105;54.956;73.412;2022-08-21T01:14:30;14.77;;;8.60;;
72201;SDS011;60105;54.956;73.412;2022-08-21T01:16:56;14.63;;;8.77;;
72201;SDS011;60105;54.956;73.412;2022-08-21T01:19:24;15.63;;;8.85;;
72201;SDS011;60105;54.956;73.412;2022-08-21T01:21:53;19.75;;;8.60;;
72201;SDS011;60105;54.956;73.412;2022-08-21T01:24:20;14.17;;;7.67;;
72201;SDS011;60105;54.956;73.412;2022-08-21T01:26:46;15.07;;;8.02;;
72201;SDS011;60105;54.956;73.412;2022-08-21T01:29:41;17.05;;;8.32;;
72201;SDS011;60105;54.956;73.412;2022-08-21T01:32:08;14.85;;;7.35;;
72201;SDS011;60105;54.956;73.412;2022-08-21T01:34:38;13.07;;;7.13;;
72201;SDS011;60105;54.956;73.412;2022-08-21T01:37:06;17.27;;;7.33;;
72201;SDS011;60105;54.956;73.412;2022-08-21T01:39:33;15.93;;;6.72;;
72201;SDS011;60105;54.956;73.412;2022-08-21T01:42:00;13.38;;;7.22;;
72201;SDS011;60105;54.956;73.412;2022-08-21T01:44:26;15.40;;;7.63;;
72201;SDS011;60105;54.956;73.412;2022-08-21T01:46:53;15.68;;;7.30;;
72201;SDS011;60105;54.956;73.412;2022-08-21T01:49:22;13.70;;;6.73;;
72201;SDS011;60105;54.956;73.412;2022-08-21T01:51:48;14.23;;;7.55;;
72201;SDS011;60105;54.956;73.412;2022-08-21T01:54:24;15.65;;;7.22;;
72201;SDS011;60105;54.956;73.412;2022-08-21T01:56:52;14.27;;;7.00;;
72201;SDS011;60105;54.956;73.412;2022-08-21T01:59:19;10.93;;;6.60;;
72201;SDS011;60105;54.956;73.412;2022-08-21T02:01:47;12.87;;;7.20;;
72201;SDS011;60105;54.956;73.412;2022-08-21T02:04:13;13.65;;;7.75;;
72201;SDS011;60105;54.956;73.412;2022-08-21T02:06:40;13.85;;;7.85;;
72201;SDS011;60105;54.956;73.412;2022-08-21T02:09:07;15.93;;;8.07;;
72201;SDS011;60105;54.956;73.412;2022-08-21T02:11:35;15.65;;;8.30;;
72201;SDS011;60105;54.956;73.412;2022-08-21T02:14:02;15.60;;;8.10;;
72201;SDS011;60105;54.956;73.412;2022-08-21T02:16:38;15.50;;;7.72;;
72201;SDS011;60105;54.956;73.412;2022-08-21T02:19:04;13.48;;;7.45;;
72201;SDS011;60105;54.956;73.412;2022-08-21T02:21:31;13.65;;;7.00;;
72201;SDS011;60105;54.956;73.412;2022-08-21T02:23:57;13.25;;;7.00;;
72201;SDS011;60105;54.956;73.412;2022-08-21T02:26:24;14.47;;;7.20;;
72201;SDS011;60105;54.956;73.412;2022-08-21T02:28:51;12.35;;;6.90;;
72201;SDS011;60105;54.956;73.412;2022-08-21T02:31:17;12.15;;;7.07;;
72201;SDS011;60105;54.956;73.412;2022-08-21T02:33:43;12.43;;;7.00;;
72201;SDS011;60105;54.956;73.412;2022-08-21T02:36:10;15.82;;;7.57;;
72201;SDS011;60105;54.956;73.412;2022-08-21T02:38:37;11.43;;;7.97;;
72201;SDS011;60105;54.956;73.412;2022-08-21T02:41:05;13.77;;;7.05;;
72201;SDS011;60105;54.956;73.412;2022-08-21T02:43:33;11.60;;;6.32;;
72201;SDS011;60105;54.956;73.412;2022-08-21T02:45:59;14.30;;;7.00;;
72201;SDS011;60105;54.956;73.412;2022-08-21T02:48:28;9.75;;;6.18;;
72201;SDS011;60105;54.956;73.412;2022-08-21T02:50:57;11.50;;;5.97;;
72201;SDS011;60105;54.956;73.412;2022-08-21T02:53:25;11.75;;;6.72;;
72201;SDS011;60105;54.956;73.412;2022-08-21T02:56:04;12.93;;;6.40;;
72201;SDS011;60105;54.956;73.412;2022-08-21T02:58:33;12.85;;;6.88;;
72201;SDS011;60105;54.956;73.412;2022-08-21T03:01:02;13.77;;;6.78;;
72201;SDS011;60105;54.956;73.412;2022-08-21T03:03:29;10.83;;;5.57;;
72201;SDS011;60105;54.956;73.412;2022-08-21T03:05:56;10.23;;;6.60;;
72201;SDS011;60105;54.956;73.412;2022-08-21T03:08:22;9.73;;;5.75;;
72201;SDS011;60105;54.956;73.412;2022-08-21T03:10:49;10.70;;;6.03;;
72201;SDS011;60105;54.956;73.412;2022-08-21T03:13:18;10.52;;;5.10;;
72201;SDS011;60105;54.956;73.412;2022-08-21T03:15:46;10.70;;;5.30;;
72201;SDS011;60105;54.956;73.412;2022-08-21T03:18:14;11.35;;;5.70;;
72201;SDS011;60105;54.956;73.412;2022-08-21T03:20:41;8.80;;;5.38;;
72201;SDS011;60105;54.956;73.412;2022-08-21T03:23:08;15.55;;;5.88;;
72201;SDS011;60105;54.956;73.412;2022-08-21T03:25:35;10.93;;;5.85;;
72201;SDS011;60105;54.956;73.412;2022-08-21T03:28:04;9.77;;;5.90;;
72201;SDS011;60105;54.956;73.412;2022-08-21T03:30:35;12.75;;;6.43;;
72201;SDS011;60105;54.956;73.412;2022-08-21T03:33:02;10.82;;;5.85;;
72201;SDS011;60105;54.956;73.412;2022-08-21T03:35:31;15.48;;;6.80;;
72201;SDS011;60105;54.956;73.412;2022-08-21T03:37:59;11.13;;;6.18;;
72201;SDS011;60105;54.956;73.412;2022-08-21T03:40:26;11.20;;;5.47;;
72201;SDS011;60105;54.956;73.412;2022-08-21T03:42:52;8.75;;;5.38;;
72201;SDS011;60105;54.956;73.412;2022-08-21T03:45:19;9.52;;;5.13;;
72201;SDS011;60105;54.956;73.412;2022-08-21T03:47:57;10.57;;;5.45;;
72201;SDS011;60105;54.956;73.412;2022-08-21T03:50:26;11.38;;;5.90;;
72201;SDS011;60105;54.956;73.412;2022-08-21T03:52:55;10.90;;;5.97;;
72201;SDS011;60105;54.956;73.412;2022-08-21T03:55:30;11.70;;;5.40;;
72201;SDS011;60105;54.956;73.412;2022-08-21T03:57:56;7.78;;;4.97;;
72201;SDS011;60105;54.956;73.412;2022-08-21T04:00:23;10.45;;;5.28;;
72201;SDS011;60105;54.956;73.412;2022-08-21T04:02:50;12.52;;;6.03;;
72201;SDS011;60105;54.956;73.412;2022-08-21T04:05:16;10.20;;;5.73;;
72201;SDS011;60105;54.956;73.412;2022-08-21T04:08:04;8.20;;;5.15;;
72201;SDS011;60105;54.956;73.412;2022-08-21T04:10:32;12.45;;;7.20;;
72201;SDS011;60105;54.956;73.412;2022-08-21T04:13:02;14.43;;;8.07;;
72201;SDS011;60105;54.956;73.412;2022-08-21T04:15:29;15.60;;;8.02;;
72201;SDS011;60105;54.956;73.412;2022-08-21T04:17:55;12.90;;;7.63;;
72201;SDS011;60105;54.956;73.412;2022-08-21T04:20:22;12.68;;;7.45;;
72201;SDS011;60105;54.956;73.412;2022-08-21T04:22:50;13.25;;;7.65;;
72201;SDS011;60105;54.956;73.412;2022-08-21T04:25:22;12.93;;;6.97;;
72201;SDS011;60105;54.956;73.412;2022-08-21T04:27:51;15.95;;;8.45;;
72201;SDS011;60105;54.956;73.412;2022-08-21T04:30:17;15.03;;;8.53;;
72201;SDS011;60105;54.956;73.412;2022-08-21T04:32:49;18.17;;;8.35;;
72201;SDS011;60105;54.956;73.412;2022-08-21T04:35:21;21.80;;;9.07;;
72201;SDS011;60105;54.956;73.412;2022-08-21T04:37:53;13.95;;;8.52;;
72201;SDS011;60105;54.956;73.412;2022-08-21T04:40:20;17.85;;;8.70;;
72201;SDS011;60105;54.956;73.412;2022-08-21T04:42:57;15.07;;;7.70;;
72201;SDS011;60105;54.956;73.412;2022-08-21T04:45:38;16.08;;;8.75;;
72201;SDS011;60105;54.956;73.412;2022-08-21T04:48:07;20.83;;;8.52;;
72201;SDS011;60105;54.956;73.412;2022-08-21T04:53:15;14.68;;;7.57;;
72201;SDS011;60105;54.956;73.412;2022-08-21T04:55:47;13.43;;;7.57;;
72201;SDS011;60105;54.956;73.412;2022-08-21T04:58:15;16.25;;;7.30;;
72201;SDS011;60105;54.956;73.412;2022-08-21T05:00:43;16.55;;;7.95;;
72201;SDS011;60105;54.956;73.412;2022-08-21T05:03:10;17.23;;;8.38;;
72201;SDS011;60105;54.956;73.412;2022-08-21T05:05:38;16.67;;;8.93;;
72201;SDS011;60105;54.956;73.412;2022-08-21T05:08:11;17.77;;;9.67;;
72201;SDS011;60105;54.956;73.412;2022-08-21T05:10:41;15.82;;;8.63;;
72201;SDS011;60105;54.956;73.412;2022-08-21T05:13:10;18.10;;;9.65;;
72201;SDS011;60105;54.956;73.412;2022-08-21T05:15:39;19.85;;;9.95;;
72201;SDS011;60105;54.956;73.412;2022-08-21T05:18:16;17.35;;;10.50;;
72201;SDS011;60105;54.956;73.412;2022-08-21T05:20:42;22.07;;;10.20;;
72201;SDS011;60105;54.956;73.412;2022-08-21T05:23:11;17.60;;;11.00;;
72201;SDS011;60105;54.956;73.412;2022-08-21T05:25:38;18.90;;;11.15;;
72201;SDS011;60105;54.956;73.412;2022-08-21T05:28:05;17.88;;;10.30;;
72201;SDS011;60105;54.956;73.412;2022-08-21T05:30:33;20.88;;;11.52;;
72201;SDS011;60105;54.956;73.412;2022-08-21T05:33:00;23.27;;;11.60;;
72201;SDS011;60105;54.956;73.412;2022-08-21T05:35:28;20.48;;;11.63;;
72201;SDS011;60105;54.956;73.412;2022-08-21T05:37:55;23.30;;;11.65;;
72201;SDS011;60105;54.956;73.412;2022-08-21T05:40:22;22.05;;;12.23;;
72201;SDS011;60105;54.956;73.412;2022-08-21T05:42:50;21.15;;;11.95;;
72201;SDS011;60105;54.956;73.412;2022-08-21T05:45:23;22.07;;;12.17;;
72201;SDS011;60105;54.956;73.412;2022-08-21T05:47:51;19.75;;;12.38;;
72201;SDS011;60105;54.956;73.412;2022-08-21T05:50:18;19.77;;;11.43;;
72201;SDS011;60105;54.956;73.412;2022-08-21T05:52:45;19.88;;;11.60;;
72201;SDS011;60105;54.956;73.412;2022-08-21T05:55:11;19.02;;;11.50;;
72201;SDS011;60105;54.956;73.412;2022-08-21T05:57:37;20.33;;;10.97;;
72201;SDS011;60105;54.956;73.412;2022-08-21T06:00:07;16.83;;;10.10;;
72201;SDS011;60105;54.956;73.412;2022-08-21T06:02:39;20.08;;;11.50;;
72201;SDS011;60105;54.956;73.412;2022-08-21T06:05:06;17.58;;;10.98;;
72201;SDS011;60105;54.956;73.412;2022-08-21T06:07:33;21.45;;;11.23;;
72201;SDS011;60105;54.956;73.412;2022-08-21T06:09:59;20.30;;;10.90;;
72201;SDS011;60105;54.956;73.412;2022-08-21T06:12:25;14.07;;;8.55;;
72201;SDS011;60105;54.956;73.412;2022-08-21T06:14:52;17.38;;;10.52;;
72201;SDS011;60105;54.956;73.412;2022-08-21T06:17:18;14.75;;;9.73;;
72201;SDS011;60105;54.956;73.412;2022-08-21T06:19:44;13.07;;;9.40;;
72201;SDS011;60105;54.956;73.412;2022-08-21T06:22:10;16.50;;;9.67;;
72201;SDS011;60105;54.956;73.412;2022-08-21T06:24:44;13.55;;;9.02;;
72201;SDS011;60105;54.956;73.412;2022-08-21T06:27:15;13.68;;;8.82;;
72201;SDS011;60105;54.956;73.412;2022-08-21T06:29:43;14.45;;;8.32;;
72201;SDS011;60105;54.956;73.412;2022-08-21T06:32:11;11.93;;;7.90;;
72201;SDS011;60105;54.956;73.412;2022-08-21T06:34:43;12.13;;;7.80;;
72201;SDS011;60105;54.956;73.412;2022-08-21T06:37:10;8.13;;;4.95;;
72201;SDS011;60105;54.956;73.412;2022-08-21T06:39:37;7.35;;;4.38;;
72201;SDS011;60105;54.956;73.412;2022-08-21T06:42:04;8.60;;;5.00;;
72201;SDS011;60105;54.956;73.412;2022-08-21T06:44:32;5.65;;;3.33;;
72201;SDS011;60105;54.956;73.412;2022-08-21T06:46:58;6.33;;;4.07;;
72201;SDS011;60105;54.956;73.412;2022-08-21T06:49:24;6.70;;;4.05;;
72201;SDS011;60105;54.956;73.412;2022-08-21T06:51:51;6.10;;;3.28;;
72201;SDS011;60105;54.956;73.412;2022-08-21T06:54:17;6.43;;;3.33;;
72201;SDS011;60105;54.956;73.412;2022-08-21T06:56:46;5.82;;;3.38;;
72201;SDS011;60105;54.956;73.412;2022-08-21T06:59:12;4.93;;;3.33;;
72201;SDS011;60105;54.956;73.412;2022-08-21T07:01:43;7.13;;;3.67;;
72201;SDS011;60105;54.956;73.412;2022-08-21T07:04:10;4.85;;;2.40;;
72201;SDS011;60105;54.956;73.412;2022-08-21T07:06:43;5.45;;;3.10;;
72201;SDS011;60105;54.956;73.412;2022-08-21T07:09:09;5.00;;;3.03;;
72201;SDS011;60105;54.956;73.412;2022-08-21T07:11:36;4.77;;;3.30;;
72201;SDS011;60105;54.956;73.412;2022-08-21T07:14:03;5.10;;;3.30;;
72201;SDS011;60105;54.956;73.412;2022-08-21T07:16:29;7.05;;;3.50;;
72201;SDS011;60105;54.956;73.412;2022-08-21T07:19:02;6.32;;;3.30;;
72201;SDS011;60105;54.956;73.412;2022-08-21T07:21:33;4.45;;;2.80;;
72201;SDS011;60105;54.956;73.412;2022-08-21T07:24:01;6.63;;;2.80;;
72201;SDS011;60105;54.956;73.412;2022-08-21T07:26:27;4.93;;;3.08;;
72201;SDS011;60105;54.956;73.412;2022-08-21T07:28:53;5.30;;;2.85;;
72201;SDS011;60105;54.956;73.412;2022-08-21T07:31:28;4.95;;;2.63;;
72201;SDS011;60105;54.956;73.412;2022-08-21T07:33:54;3.92;;;2.10;;
72201;SDS011;60105;54.956;73.412;2022-08-21T07:36:20;5.57;;;2.73;;
72201;SDS011;60105;54.956;73.412;2022-08-21T07:38:47;5.82;;;2.70;;
72201;SDS011;60105;54.956;73.412;2022-08-21T07:41:18;4.68;;;2.80;;
72201;SDS011;60105;54.956;73.412;2022-08-21T07:43:47;5.43;;;2.25;;
72201;SDS011;60105;54.956;73.412;2022-08-21T07:46:14;6.90;;;2.65;;
72201;SDS011;60105;54.956;73.412;2022-08-21T07:48:40;4.07;;;2.27;;
72201;SDS011;60105;54.956;73.412;2022-08-21T07:51:09;5.10;;;2.28;;
72201;SDS011;60105;54.956;73.412;2022-08-21T07:53:37;5.97;;;2.50;;
72201;SDS011;60105;54.956;73.412;2022-08-21T07:56:05;9.30;;;2.00;;
72201;SDS011;60105;54.956;73.412;2022-08-21T07:58:33;4.32;;;1.80;;
72201;SDS011;60105;54.956;73.412;2022-08-21T08:01:00;4.43;;;1.63;;
72201;SDS011;60105;54.956;73.412;2022-08-21T08:03:26;4.07;;;1.95;;
72201;SDS011;60105;54.956;73.412;2022-08-21T08:05:52;3.72;;;2.05;;
72201;SDS011;60105;54.956;73.412;2022-08-21T08:08:19;4.38;;;1.63;;
72201;SDS011;60105;54.956;73.412;2022-08-21T08:10:45;4.35;;;1.88;;
72201;SDS011;60105;54.956;73.412;2022-08-21T08:13:22;6.67;;;2.60;;
72201;SDS011;60105;54.956;73.412;2022-08-21T08:15:48;5.28;;;2.40;;
72201;SDS011;60105;54.956;73.412;2022-08-21T08:18:24;4.55;;;2.20;;
72201;SDS011;60105;54.956;73.412;2022-08-21T08:20:50;3.75;;;1.63;;
72201;SDS011;60105;54.956;73.412;2022-08-21T08:23:26;4.28;;;2.15;;
72201;SDS011;60105;54.956;73.412;2022-08-21T08:25:53;5.47;;;1.90;;
72201;SDS011;60105;54.956;73.412;2022-08-21T08:28:19;4.43;;;1.73;;
72201;SDS011;60105;54.956;73.412;2022-08-21T08:30:47;3.35;;;1.73;;
72201;SDS011;60105;54.956;73.412;2022-08-21T08:33:15;3.40;;;1.60;;
72201;SDS011;60105;54.956;73.412;2022-08-21T08:35:46;3.80;;;1.85;;
72201;SDS011;60105;54.956;73.412;2022-08-21T08:38:14;2.93;;;1.70;;
72201;SDS011;60105;54.956;73.412;2022-08-21T08:43:26;4.32;;;2.17;;
72201;SDS011;60105;54.956;73.412;2022-08-21T08:45:54;3.92;;;2.10;;
72201;SDS011;60105;54.956;73.412;2022-08-21T08:48:41;4.32;;;2.40;;
72201;SDS011;60105;54.956;73.412;2022-08-21T08:51:18;5.90;;;2.30;;
72201;SDS011;60105;54.956;73.412;2022-08-21T08:53:55;5.53;;;2.40;;
72201;SDS011;60105;54.956;73.412;2022-08-21T08:56:27;4.72;;;2.30;;
72201;SDS011;60105;54.956;73.412;2022-08-21T08:58:57;4.85;;;2.90;;
72201;SDS011;60105;54.956;73.412;2022-08-21T09:01:28;4.30;;;2.30;;
72201;SDS011;60105;54.956;73.412;2022-08-21T09:03:54;4.87;;;2.27;;
72201;SDS011;60105;54.956;73.412;2022-08-21T09:23:41;5.15;;;2.03;;
72201;SDS011;60105;54.956;73.412;2022-08-21T09:26:12;5.25;;;2.70;;
72201;SDS011;60105;54.956;73.412;2022-08-21T09:28:40;5.80;;;2.55;;
72201;SDS011;60105;54.956;73.412;2022-08-21T09:31:11;6.33;;;2.67;;
72201;SDS011;60105;54.956;73.412;2022-08-21T09:33:46;5.65;;;2.55;;
72201;SDS011;60105;54.956;73.412;2022-08-21T09:36:12;4.15;;;2.25;;
72201;SDS011;60105;54.956;73.412;2022-08-21T09:38:53;4.45;;;2.22;;
72201;SDS011;60105;54.956;73.412;2022-08-21T09:41:26;5.20;;;2.42;;
72201;SDS011;60105;54.956;73.412;2022-08-21T09:43:54;5.47;;;1.93;;
72201;SDS011;60105;54.956;73.412;2022-08-21T09:46:21;5.90;;;2.72;;
72201;SDS011;60105;54.956;73.412;2022-08-21T09:48:51;6.97;;;2.65;;
72201;SDS011;60105;54.956;73.412;2022-08-21T09:51:31;7.57;;;2.42;;
72201;SDS011;60105;54.956;73.412;2022-08-21T09:56:33;6.17;;;2.00;;
72201;SDS011;60105;54.956;73.412;2022-08-21T09:59:27;4.45;;;1.98;;
72201;SDS011;60105;54.956;73.412;2022-08-21T10:01:58;6.53;;;2.33;;
72201;SDS011;60105;54.956;73.412;2022-08-21T10:04:34;5.45;;;2.70;;
72201;SDS011;60105;54.956;73.412;2022-08-21T10:07:08;6.25;;;2.60;;
72201;SDS011;60105;54.956;73.412;2022-08-21T10:09:36;5.77;;;2.60;;
72201;SDS011;60105;54.956;73.412;2022-08-21T10:12:16;6.80;;;2.90;;
72201;SDS011;60105;54.956;73.412;2022-08-21T10:20:41;6.43;;;3.42;;
72201;SDS011;60105;54.956;73.412;2022-08-21T10:23:21;8.97;;;2.73;;
72201;SDS011;60105;54.956;73.412;2022-08-21T10:34:38;4.65;;;2.08;;
72201;SDS011;60105;54.956;73.412;2022-08-21T10:40:17;6.47;;;2.22;;
72201;SDS011;60105;54.956;73.412;2022-08-21T10:48:55;5.70;;;2.70;;
72201;SDS011;60105;54.956;73.412;2022-08-21T10:51:35;5.57;;;3.33;;
72201;SDS011;60105;54.956;73.412;2022-08-21T10:57:51;8.15;;;3.47;;
72201;SDS011;60105;54.956;73.412;2022-08-21T11:03:11;8.35;;;3.10;;
72201;SDS011;60105;54.956;73.412;2022-08-21T11:05:54;6.63;;;3.70;;
72201;SDS011;60105;54.956;73.412;2022-08-21T11:11:05;7.80;;;4.07;;
72201;SDS011;60105;54.956;73.412;2022-08-21T11:13:40;9.13;;;4.07;;
72201;SDS011;60105;54.956;73.412;2022-08-21T11:18:58;6.90;;;3.83;;
72201;SDS011;60105;54.956;73.412;2022-08-21T11:29:44;5.75;;;3.20;;
72201;SDS011;60105;54.956;73.412;2022-08-21T11:35:22;8.85;;;3.05;;
72201;SDS011;60105;54.956;73.412;2022-08-21T11:40:56;7.15;;;2.53;;
72201;SDS011;60105;54.956;73.412;2022-08-21T11:51:33;10.02;;;3.22;;
72201;SDS011;60105;54.956;73.412;2022-08-21T11:54:13;6.90;;;2.75;;
72201;SDS011;60105;54.956;73.412;2022-08-21T11:57:04;7.72;;;3.63;;
72201;SDS011;60105;54.956;73.412;2022-08-21T11:59:48;7.33;;;3.73;;
72201;SDS011;60105;54.956;73.412;2022-08-21T12:02:17;8.43;;;3.92;;
72201;SDS011;60105;54.956;73.412;2022-08-21T12:04:56;7.00;;;3.00;;
72201;SDS011;60105;54.956;73.412;2022-08-21T12:07:34;7.38;;;3.90;;
72201;SDS011;60105;54.956;73.412;2022-08-21T12:10:18;7.80;;;3.38;;
72201;SDS011;60105;54.956;73.412;2022-08-21T12:12:47;7.07;;;2.83;;
72201;SDS011;60105;54.956;73.412;2022-08-21T12:22:54;6.07;;;2.70;;
72201;SDS011;60105;54.956;73.412;2022-08-21T12:28:26;9.23;;;3.47;;
72201;SDS011;60105;54.956;73.412;2022-08-21T12:31:04;7.50;;;3.65;;
72201;SDS011;60105;54.956;73.412;2022-08-21T12:36:13;10.43;;;5.40;;
72201;SDS011;60105;54.956;73.412;2022-08-21T12:38:50;10.37;;;4.20;;
72201;SDS011;60105;54.956;73.412;2022-08-21T12:41:22;13.30;;;3.92;;
72201;SDS011;60105;54.956;73.412;2022-08-21T12:44:15;9.20;;;4.03;;
72201;SDS011;60105;54.956;73.412;2022-08-21T12:46:48;10.05;;;4.00;;
72201;SDS011;60105;54.956;73.412;2022-08-21T12:49:31;11.65;;;4.32;;
72201;SDS011;60105;54.956;73.412;2022-08-21T12:54:47;6.18;;;2.80;;
72201;SDS011;60105;54.956;73.412;2022-08-21T12:57:18;5.10;;;2.50;;
72201;SDS011;60105;54.956;73.412;2022-08-21T12:59:58;7.55;;;2.83;;
72201;SDS011;60105;54.956;73.412;2022-08-21T13:02:28;8.55;;;3.28;;
72201;SDS011;60105;54.956;73.412;2022-08-21T13:04:57;7.30;;;3.60;;
72201;SDS011;60105;54.956;73.412;2022-08-21T13:07:28;6.13;;;3.30;;
72201;SDS011;60105;54.956;73.412;2022-08-21T13:12:25;7.70;;;3.20;;
72201;SDS011;60105;54.956;73.412;2022-08-21T13:14:55;7.80;;;3.28;;
72201;SDS011;60105;54.956;73.412;2022-08-21T13:17:24;7.57;;;3.27;;
72201;SDS011;60105;54.956;73.412;2022-08-21T13:20:06;6.45;;;2.60;;
72201;SDS011;60105;54.956;73.412;2022-08-21T13:22:53;7.30;;;3.85;;
72201;SDS011;60105;54.956;73.412;2022-08-21T13:25:20;9.63;;;4.25;;
72201;SDS011;60105;54.956;73.412;2022-08-21T13:30:50;8.93;;;3.33;;
72201;SDS011;60105;54.956;73.412;2022-08-21T13:33:18;8.73;;;3.58;;
72201;SDS011;60105;54.956;73.412;2022-08-21T13:38:24;8.13;;;3.60;;
72201;SDS011;60105;54.956;73.412;2022-08-21T13:43:32;6.03;;;3.20;;
72201;SDS011;60105;54.956;73.412;2022-08-21T13:46:01;11.65;;;3.33;;
72201;SDS011;60105;54.956;73.412;2022-08-21T13:48:33;7.43;;;3.90;;
72201;SDS011;60105;54.956;73.412;2022-08-21T13:51:00;9.52;;;3.63;;
72201;SDS011;60105;54.956;73.412;2022-08-21T13:53:34;8.43;;;3.95;;
72201;SDS011;60105;54.956;73.412;2022-08-21T13:56:03;7.50;;;3.87;;
72201;SDS011;60105;54.956;73.412;2022-08-21T13:58:41;9.13;;;4.53;;
72201;SDS011;60105;54.956;73.412;2022-08-21T14:03:50;8.75;;;4.57;;
72201;SDS011;60105;54.956;73.412;2022-08-21T14:06:25;10.30;;;4.63;;
72201;SDS011;60105;54.956;73.412;2022-08-21T14:08:58;8.13;;;3.70;;
72201;SDS011;60105;54.956;73.412;2022-08-21T14:11:31;8.95;;;4.03;;
72201;SDS011;60105;54.956;73.412;2022-08-21T14:14:04;8.63;;;3.58;;
72201;SDS011;60105;54.956;73.412;2022-08-21T14:16:46;6.97;;;3.60;;
72201;SDS011;60105;54.956;73.412;2022-08-21T14:19:24;7.15;;;3.38;;
72201;SDS011;60105;54.956;73.412;2022-08-21T14:25:04;8.05;;;3.63;;
72201;SDS011;60105;54.956;73.412;2022-08-21T14:27:39;7.75;;;3.38;;
72201;SDS011;60105;54.956;73.412;2022-08-21T14:30:12;9.70;;;3.60;;
72201;SDS011;60105;54.956;73.412;2022-08-21T14:32:42;6.82;;;3.03;;
72201;SDS011;60105;54.956;73.412;2022-08-21T14:35:16;9.40;;;3.53;;
72201;SDS011;60105;54.956;73.412;2022-08-21T14:37:49;5.28;;;3.28;;
72201;SDS011;60105;54.956;73.412;2022-08-21T14:40:26;8.15;;;2.92;;
72201;SDS011;60105;54.956;73.412;2022-08-21T14:42:52;6.63;;;2.78;;
72201;SDS011;60105;54.956;73.412;2022-08-21T14:45:23;6.07;;;2.63;;
72201;SDS011;60105;54.956;73.412;2022-08-21T14:47:53;6.53;;;2.97;;
72201;SDS011;60105;54.956;73.412;2022-08-21T14:50:24;10.65;;;3.13;;
72201;SDS011;60105;54.956;73.412;2022-08-21T14:52:51;7.50;;;2.80;;
72201;SDS011;60105;54.956;73.412;2022-08-21T14:55:17;10.70;;;3.30;;
72201;SDS011;60105;54.956;73.412;2022-08-21T14:57:45;7.22;;;3.55;;
72201;SDS011;60105;54.956;73.412;2022-08-21T15:00:14;10.60;;;3.17;;
72201;SDS011;60105;54.956;73.412;2022-08-21T15:02:43;7.60;;;3.92;;
72201;SDS011;60105;54.956;73.412;2022-08-21T15:05:10;9.80;;;4.00;;
72201;SDS011;60105;54.956;73.412;2022-08-21T15:07:36;8.50;;;4.22;;
72201;SDS011;60105;54.956;73.412;2022-08-21T15:10:03;8.20;;;3.75;;
72201;SDS011;60105;54.956;73.412;2022-08-21T15:12:41;12.90;;;4.80;;
72201;SDS011;60105;54.956;73.412;2022-08-21T15:15:08;8.35;;;4.85;;
72201;SDS011;60105;54.956;73.412;2022-08-21T15:17:35;10.52;;;4.40;;
72201;SDS011;60105;54.956;73.412;2022-08-21T15:20:02;10.45;;;4.63;;
72201;SDS011;60105;54.956;73.412;2022-08-21T15:22:30;9.93;;;4.38;;
72201;SDS011;60105;54.956;73.412;2022-08-21T15:24:56;11.10;;;4.70;;
72201;SDS011;60105;54.956;73.412;2022-08-21T15:27:22;11.88;;;4.93;;
72201;SDS011;60105;54.956;73.412;2022-08-21T15:29:49;10.52;;;4.00;;
72201;SDS011;60105;54.956;73.412;2022-08-21T15:32:22;10.73;;;4.43;;
72201;SDS011;60105;54.956;73.412;2022-08-21T15:34:50;8.52;;;4.82;;
72201;SDS011;60105;54.956;73.412;2022-08-21T15:37:18;12.20;;;6.63;;
72201;SDS011;60105;54.956;73.412;2022-08-21T15:39:44;17.80;;;7.35;;
72201;SDS011;60105;54.956;73.412;2022-08-21T15:42:11;13.88;;;7.35;;
72201;SDS011;60105;54.956;73.412;2022-08-21T15:44:48;11.55;;;7.40;;
72201;SDS011;60105;54.956;73.412;2022-08-21T15:47:27;16.88;;;7.47;;
72201;SDS011;60105;54.956;73.412;2022-08-21T15:49:56;16.53;;;6.70;;
72201;SDS011;60105;54.956;73.412;2022-08-21T15:52:22;13.07;;;6.47;;
72201;SDS011;60105;54.956;73.412;2022-08-21T15:54:49;12.48;;;6.60;;
72201;SDS011;60105;54.956;73.412;2022-08-21T15:57:16;11.55;;;5.90;;
72201;SDS011;60105;54.956;73.412;2022-08-21T15:59:50;13.90;;;6.93;;
72201;SDS011;60105;54.956;73.412;2022-08-21T16:02:22;12.63;;;6.20;;
72201;SDS011;60105;54.956;73.412;2022-08-21T16:04:56;13.70;;;6.32;;
72201;SDS011;60105;54.956;73.412;2022-08-21T16:07:23;12.30;;;5.25;;
72201;SDS011;60105;54.956;73.412;2022-08-21T16:09:59;8.27;;;5.65;;
72201;SDS011;60105;54.956;73.412;2022-08-21T16:12:29;9.63;;;5.70;;
72201;SDS011;60105;54.956;73.412;2022-08-21T16:14:58;9.77;;;5.53;;
72201;SDS011;60105;54.956;73.412;2022-08-21T16:17:31;10.23;;;5.82;;
72201;SDS011;60105;54.956;73.412;2022-08-21T16:19:59;7.45;;;4.63;;
72201;SDS011;60105;54.956;73.412;2022-08-21T16:22:27;11.57;;;5.05;;
72201;SDS011;60105;54.956;73.412;2022-08-21T16:24:53;12.40;;;5.82;;
72201;SDS011;60105;54.956;73.412;2022-08-21T16:27:23;12.47;;;6.47;;
72201;SDS011;60105;54.956;73.412;2022-08-21T16:29:49;13.43;;;5.97;;
72201;SDS011;60105;54.956;73.412;2022-08-21T16:32:21;14.13;;;5.43;;
72201;SDS011;60105;54.956;73.412;2022-08-21T16:34:47;13.88;;;6.07;;
72201;SDS011;60105;54.956;73.412;2022-08-21T16:37:20;14.20;;;6.85;;